Time;durP1;ratioP1;P1;durP2;ratioP2;P2;SDS_P1;SDS_P2;PMS_P1;PMS_P2;Temp;Humidity;BMP_temperature;BMP_pressure;BME280_temperature;BME280_humidity;BME280_pressure;Samples;Min_cycle;Max_cycle;Signal;HPM_P1;HPM_P2
2021/09/24 00:01:17;;;;;;;9.00;5.65;;;12.90;99.90;;;;;;4883042;29;20033;-72
2021/09/24 00:03:43;;;;;;;10.43;5.05;;;12.90;99.90;;;;;;4883426;29;20045;-72
2021/09/24 00:06:09;;;;;;;7.10;5.40;;;12.90;99.90;;;;;;4882843;29;20052;-72
2021/09/24 00:08:34;;;;;;;6.68;5.43;;;12.90;99.90;;;;;;4882614;29;20064;-72
2021/09/24 00:11:00;;;;;;;5.80;5.20;;;12.90;99.90;;;;;;4882528;29;20041;-72
2021/09/24 00:13:26;;;;;;;5.97;5.40;;;12.90;99.90;;;;;;4882446;29;20132;-72
2021/09/24 00:15:53;;;;;;;8.88;5.00;;;12.90;99.90;;;;;;4882543;29;20135;-72
2021/09/24 00:18:19;;;;;;;7.10;5.47;;;12.90;99.90;;;;;;4882469;29;20052;-72
2021/09/24 00:20:45;;;;;;;6.18;5.40;;;12.90;99.90;;;;;;4882591;29;20048;-72
2021/09/24 00:23:11;;;;;;;6.43;5.28;;;12.80;99.90;;;;;;4882587;29;20037;-72
2021/09/24 00:25:37;;;;;;;8.18;5.18;;;12.80;99.90;;;;;;4882219;29;20453;-72
2021/09/24 00:28:05;;;;;;;7.50;5.13;;;12.80;99.90;;;;;;4882617;29;20048;-72
2021/09/24 00:30:32;;;;;;;9.15;5.88;;;12.90;99.90;;;;;;4882126;29;20041;-72
2021/09/24 00:32:58;;;;;;;7.82;5.32;;;12.80;99.90;;;;;;4882434;29;20045;-72
2021/09/24 00:35:24;;;;;;;5.68;5.05;;;12.80;99.90;;;;;;4882543;29;20041;-72
2021/09/24 00:37:50;;;;;;;5.75;4.90;;;12.70;99.90;;;;;;4882421;29;20540;-72
2021/09/24 00:40:16;;;;;;;5.80;5.30;;;12.90;99.90;;;;;;4882266;29;20071;-72
2021/09/24 00:42:42;;;;;;;5.95;5.45;;;12.90;99.90;;;;;;4882308;29;20055;-72
2021/09/24 00:45:09;;;;;;;8.88;5.68;;;12.80;99.90;;;;;;4881965;29;20160;-72
2021/09/24 00:47:35;;;;;;;6.38;5.43;;;12.70;99.90;;;;;;4882224;29;20051;-72
2021/09/24 00:50:02;;;;;;;6.10;5.50;;;12.70;99.90;;;;;;4881746;29;20033;-72
2021/09/24 00:52:28;;;;;;;8.25;6.38;;;12.70;99.90;;;;;;4882014;29;20052;-72
2021/09/24 00:54:54;;;;;;;6.03;5.28;;;12.80;99.90;;;;;;4881895;29;20132;-72
2021/09/24 00:57:20;;;;;;;8.40;5.65;;;12.70;99.90;;;;;;4882243;29;20606;-72
2021/09/24 00:59:50;;;;;;;7.88;5.18;;;12.60;99.90;;;;;;4881889;29;20072;-72
2021/09/24 01:02:17;;;;;;;8.73;4.82;;;12.60;99.90;;;;;;4881700;29;20120;-72
2021/09/24 01:04:43;;;;;;;8.77;5.55;;;12.50;99.90;;;;;;4881797;29;20041;-72
2021/09/24 01:07:12;;;;;;;7.38;5.57;;;12.60;99.90;;;;;;4881337;29;20051;-72
2021/09/24 01:09:39;;;;;;;8.20;5.13;;;12.50;99.90;;;;;;4881911;29;20653;-72
2021/09/24 01:12:06;;;;;;;11.30;5.00;;;12.40;99.90;;;;;;4881647;29;20362;-72
2021/09/24 01:14:32;;;;;;;7.03;5.10;;;12.50;99.90;;;;;;4881828;29;20076;-72
2021/09/24 01:16:59;;;;;;;7.47;5.20;;;12.50;99.90;;;;;;4881624;29;20088;-72
2021/09/24 01:19:26;;;;;;;9.02;5.55;;;12.40;99.90;;;;;;4882027;29;20159;-72
2021/09/24 01:21:52;;;;;;;5.65;5.10;;;12.40;99.90;;;;;;4881686;29;20045;-72
2021/09/24 01:24:18;;;;;;;6.30;5.53;;;12.40;99.90;;;;;;4881728;29;20052;-72
2021/09/24 01:26:48;;;;;;;5.75;4.90;;;12.40;99.90;;;;;;4881720;29;20040;-72
2021/09/24 01:29:15;;;;;;;6.75;4.95;;;12.40;99.90;;;;;;4882279;29;20045;-72
2021/09/24 01:31:41;;;;;;;5.82;5.07;;;12.40;99.90;;;;;;4881446;29;20127;-72
2021/09/24 01:34:07;;;;;;;6.85;5.10;;;12.30;99.90;;;;;;4881565;29;20045;-72
2021/09/24 01:36:33;;;;;;;6.13;5.03;;;12.30;99.90;;;;;;4881663;29;20048;-72
2021/09/24 01:39:08;;;;;;;8.43;5.18;;;12.20;99.90;;;;;;4881821;29;20056;-72
2021/09/24 01:41:37;;;;;;;6.15;5.03;;;12.20;99.90;;;;;;4881666;29;20040;-72
2021/09/24 01:44:03;;;;;;;8.55;5.45;;;12.20;99.90;;;;;;4881950;29;20056;-72
2021/09/24 01:46:29;;;;;;;5.88;5.30;;;12.20;99.90;;;;;;4880967;29;20124;-72
2021/09/24 01:48:55;;;;;;;7.93;5.15;;;12.20;99.90;;;;;;4881973;29;20051;-72
2021/09/24 01:51:21;;;;;;;8.52;5.45;;;12.10;99.90;;;;;;4881332;29;20041;-72
2021/09/24 01:53:48;;;;;;;9.32;5.03;;;12.10;99.90;;;;;;4881329;29;20088;-72
2021/09/24 01:56:14;;;;;;;7.15;5.07;;;12.10;99.90;;;;;;4881008;29;20124;-72
2021/09/24 01:58:40;;;;;;;6.78;5.07;;;12.20;99.90;;;;;;4881542;29;20048;-72
2021/09/24 02:01:06;;;;;;;6.07;4.75;;;12.30;99.90;;;;;;4880707;29;20040;-72
2021/09/24 02:03:32;;;;;;;5.68;5.07;;;12.20;99.90;;;;;;4881167;29;20045;-72
2021/09/24 02:05:57;;;;;;;8.18;4.68;;;12.20;99.90;;;;;;4881209;29;20454;-72
2021/09/24 02:08:23;;;;;;;5.45;4.97;;;12.20;99.90;;;;;;4880829;29;20057;-72
2021/09/24 02:10:49;;;;;;;7.22;4.80;;;12.10;99.90;;;;;;4880868;29;20048;-72
2021/09/24 02:13:15;;;;;;;8.35;5.03;;;12.00;99.90;;;;;;4880752;29;20397;-72
2021/09/24 02:15:41;;;;;;;7.68;5.03;;;12.00;99.90;;;;;;4880970;29;20037;-72
2021/09/24 02:18:07;;;;;;;8.02;5.15;;;12.00;99.90;;;;;;4880554;29;20053;-72
2021/09/24 02:20:32;;;;;;;7.97;4.93;;;12.00;99.90;;;;;;4880532;29;20093;-72
2021/09/24 02:22:58;;;;;;;6.60;5.25;;;11.90;99.90;;;;;;4880424;29;20041;-72
2021/09/24 02:25:24;;;;;;;7.97;5.20;;;11.90;99.90;;;;;;4880411;29;20071;-72
2021/09/24 02:27:50;;;;;;;7.22;5.47;;;11.90;99.90;;;;;;4880209;29;20045;-72
2021/09/24 02:30:16;;;;;;;8.65;5.30;;;11.90;99.90;;;;;;4880466;29;20136;-72
2021/09/24 02:32:41;;;;;;;7.82;5.22;;;11.90;99.90;;;;;;4880413;29;20497;-72
2021/09/24 02:35:08;;;;;;;7.47;4.82;;;11.90;99.90;;;;;;4881047;29;20453;-72
2021/09/24 02:37:33;;;;;;;8.52;5.35;;;11.80;99.90;;;;;;4880702;29;20069;-72
2021/09/24 02:39:59;;;;;;;7.68;5.35;;;11.90;99.90;;;;;;4880266;29;20111;-72
2021/09/24 02:42:25;;;;;;;7.65;5.28;;;11.80;99.90;;;;;;4880261;29;20168;-72
2021/09/24 02:44:51;;;;;;;5.63;4.93;;;11.80;99.90;;;;;;4880233;29;20045;-72
2021/09/24 02:47:17;;;;;;;7.55;5.10;;;11.90;99.90;;;;;;4880391;29;20056;-72
2021/09/24 02:49:44;;;;;;;7.60;4.65;;;11.90;99.90;;;;;;4880490;29;20062;-71
2021/09/24 02:52:10;;;;;;;6.88;4.90;;;11.80;99.90;;;;;;4880562;29;20041;-72
2021/09/24 02:54:36;;;;;;;7.43;4.82;;;11.80;99.90;;;;;;4880434;29;20554;-72
2021/09/24 02:57:02;;;;;;;9.38;5.05;;;11.80;99.90;;;;;;4880024;29;20144;-72
2021/09/24 02:59:28;;;;;;;7.82;4.88;;;11.80;99.90;;;;;;4880135;29;20075;-72
2021/09/24 03:01:55;;;;;;;5.22;4.72;;;11.80;99.90;;;;;;4880180;29;20504;-72
2021/09/24 03:04:21;;;;;;;7.53;4.88;;;11.70;99.90;;;;;;4880693;29;20040;-72
2021/09/24 03:06:47;;;;;;;7.57;5.32;;;11.70;99.90;;;;;;4880312;29;20486;-72
2021/09/24 03:09:13;;;;;;;6.20;4.97;;;11.70;99.90;;;;;;4880763;29;20057;-72
2021/09/24 03:11:39;;;;;;;6.22;4.47;;;11.70;99.90;;;;;;4880539;29;20037;-72
2021/09/24 03:14:05;;;;;;;6.38;4.70;;;11.70;99.90;;;;;;4880552;29;20049;-72
2021/09/24 03:16:30;;;;;;;5.40;4.82;;;11.70;99.90;;;;;;4880004;29;20041;-72
2021/09/24 03:18:56;;;;;;;6.68;4.75;;;11.60;99.90;;;;;;4881055;29;20045;-72
2021/09/24 03:21:22;;;;;;;5.78;4.85;;;11.50;99.90;;;;;;4880409;29;20477;-72
2021/09/24 03:23:48;;;;;;;7.32;4.78;;;11.70;99.90;;;;;;4880992;29;20049;-72
2021/09/24 03:26:14;;;;;;;6.85;4.82;;;11.70;99.90;;;;;;4880697;29;20045;-72
2021/09/24 03:28:40;;;;;;;8.50;4.60;;;11.70;99.90;;;;;;4880734;29;20077;-72
2021/09/24 03:31:06;;;;;;;7.20;5.10;;;11.70;99.90;;;;;;4881462;29;20045;-72
2021/09/24 03:33:32;;;;;;;5.45;4.30;;;11.60;99.90;;;;;;4883747;29;20037;-72
2021/09/24 03:35:57;;;;;;;7.88;4.70;;;11.60;99.90;;;;;;4883333;29;20497;-72
2021/09/24 03:38:23;;;;;;;7.32;5.15;;;11.60;99.90;;;;;;4883712;29;20045;-72
2021/09/24 03:40:49;;;;;;;7.43;5.13;;;11.70;99.90;;;;;;4882841;29;20036;-72
2021/09/24 03:43:15;;;;;;;6.85;4.88;;;11.50;99.90;;;;;;4883296;29;20132;-72
2021/09/24 03:45:41;;;;;;;5.57;4.78;;;11.50;99.90;;;;;;4883093;29;20516;-72
2021/09/24 03:48:07;;;;;;;5.43;4.93;;;11.40;99.90;;;;;;4883013;29;20132;-71
2021/09/24 03:50:32;;;;;;;8.20;4.60;;;11.40;99.90;;;;;;4883384;29;20039;-72
2021/09/24 03:52:58;;;;;;;9.40;4.82;;;11.40;99.90;;;;;;4883134;29;20120;-72
2021/09/24 03:55:24;;;;;;;5.03;4.50;;;11.40;99.90;;;;;;4883514;29;20121;-72
2021/09/24 03:57:50;;;;;;;7.20;4.55;;;11.30;99.90;;;;;;4883082;29;20127;-72
2021/09/24 04:00:16;;;;;;;5.57;4.68;;;11.40;99.90;;;;;;4883404;29;20128;-72
2021/09/24 04:02:42;;;;;;;7.53;5.00;;;11.50;99.90;;;;;;4883377;29;20041;-72
2021/09/24 04:05:09;;;;;;;4.40;4.00;;;11.40;99.90;;;;;;4883125;29;20041;-72
2021/09/24 04:07:35;;;;;;;8.40;5.22;;;11.30;99.90;;;;;;4883039;29;20048;-72
2021/09/24 04:10:01;;;;;;;5.53;4.30;;;11.30;99.90;;;;;;4882924;29;20061;-72
2021/09/24 04:12:27;;;;;;;6.05;4.57;;;11.30;99.90;;;;;;4885826;29;20044;-71
2021/09/24 04:14:53;;;;;;;6.85;5.07;;;11.30;99.90;;;;;;4881550;29;20514;-72
2021/09/24 04:17:19;;;;;;;6.93;4.40;;;11.30;99.90;;;;;;4881768;29;20526;-72
2021/09/24 04:19:45;;;;;;;7.22;4.70;;;11.30;99.90;;;;;;4891059;29;20096;-72
2021/09/24 04:22:10;;;;;;;6.50;4.45;;;11.30;99.90;;;;;;4889826;29;20051;-72
2021/09/24 04:24:36;;;;;;;6.25;4.88;;;11.20;99.90;;;;;;4892123;29;20079;-72
2021/09/24 04:27:02;;;;;;;5.97;4.10;;;11.20;99.90;;;;;;4901443;29;20048;-72
2021/09/24 04:29:28;;;;;;;7.47;4.85;;;11.20;99.90;;;;;;4898885;29;20044;-72
2021/09/24 04:31:54;;;;;;;4.93;4.47;;;11.10;99.90;;;;;;4881925;29;20048;-71
2021/09/24 04:34:20;;;;;;;9.23;4.30;;;11.20;99.90;;;;;;4882340;29;20044;-71
2021/09/24 04:36:46;;;;;;;6.30;5.00;;;11.10;99.90;;;;;;4886600;29;20056;-75
2021/09/24 04:39:11;;;;;;;6.40;4.55;;;11.10;99.90;;;;;;4882188;29;20052;-72
2021/09/24 04:41:37;;;;;;;4.40;4.00;;;11.10;99.90;;;;;;4881821;29;20512;-72
2021/09/24 04:44:03;;;;;;;8.52;5.10;;;11.10;99.90;;;;;;4882246;29;20044;-72
2021/09/24 04:46:29;;;;;;;6.05;4.75;;;11.10;99.90;;;;;;4881707;29;20045;-72
2021/09/24 04:48:57;;;;;;;6.93;5.03;;;11.20;99.90;;;;;;4882915;29;20051;-72
2021/09/24 04:51:23;;;;;;;4.53;4.05;;;11.20;99.90;;;;;;4881740;29;20037;-72
2021/09/24 04:53:49;;;;;;;6.32;4.50;;;11.10;99.90;;;;;;4881943;29;20074;-72
2021/09/24 04:56:15;;;;;;;6.53;4.60;;;11.10;99.90;;;;;;4881888;29;20081;-72
2021/09/24 04:58:42;;;;;;;9.07;4.63;;;11.10;99.90;;;;;;4882234;29;20049;-72
2021/09/24 05:01:08;;;;;;;9.80;5.18;;;11.10;99.90;;;;;;4881737;29;20147;-72
2021/09/24 05:03:34;;;;;;;5.15;4.00;;;11.10;99.90;;;;;;4881589;29;20048;-72
2021/09/24 05:05:59;;;;;;;6.13;3.97;;;11.00;99.90;;;;;;4881515;29;20100;-72
2021/09/24 05:08:25;;;;;;;4.50;4.10;;;11.00;99.90;;;;;;4881591;29;20061;-72
2021/09/24 05:10:51;;;;;;;6.63;4.38;;;11.00;99.90;;;;;;4882198;29;20045;-72
2021/09/24 05:13:17;;;;;;;7.13;4.57;;;11.10;99.90;;;;;;4881676;29;20041;-72
2021/09/24 05:15:43;;;;;;;5.25;4.68;;;11.00;99.90;;;;;;4881368;29;20041;-72
2021/09/24 05:18:09;;;;;;;4.65;3.60;;;11.10;99.90;;;;;;4881696;29;20049;-72
2021/09/24 05:20:34;;;;;;;14.35;4.30;;;11.10;99.90;;;;;;4881554;29;20048;-72
2021/09/24 05:23:00;;;;;;;9.27;4.63;;;11.10;99.90;;;;;;4881188;29;20139;-72
2021/09/24 05:25:26;;;;;;;5.40;4.28;;;11.10;99.90;;;;;;4881124;29;20119;-72
2021/09/24 05:27:53;;;;;;;7.93;4.32;;;11.10;99.90;;;;;;4881346;29;20045;-72
2021/09/24 05:30:19;;;;;;;5.93;4.70;;;11.00;99.90;;;;;;4881458;29;20140;-72
2021/09/24 05:32:45;;;;;;;7.65;4.25;;;11.00;99.90;;;;;;4881627;29;20105;-72
2021/09/24 05:35:12;;;;;;;7.43;4.35;;;11.10;99.90;;;;;;4880967;29;20497;-72
2021/09/24 05:37:38;;;;;;;6.95;4.57;;;11.00;99.90;;;;;;4881195;29;20523;-72
2021/09/24 05:40:05;;;;;;;4.85;4.35;;;11.00;99.90;;;;;;4881215;29;20510;-72
2021/09/24 05:42:32;;;;;;;8.02;4.57;;;10.90;99.90;;;;;;4880922;29;20040;-72
2021/09/24 05:44:57;;;;;;;7.05;4.10;;;10.90;99.90;;;;;;4881162;29;20120;-72
2021/09/24 05:47:23;;;;;;;5.28;4.32;;;10.90;99.90;;;;;;4881005;29;20129;-72
2021/09/24 05:49:49;;;;;;;6.32;4.28;;;11.00;99.90;;;;;;4881082;29;20060;-72
2021/09/24 05:52:15;;;;;;;5.32;4.20;;;11.10;99.90;;;;;;4881318;29;20579;-72
2021/09/24 05:54:41;;;;;;;8.57;4.45;;;11.00;99.90;;;;;;4880612;29;20037;-72
2021/09/24 05:57:07;;;;;;;6.82;4.47;;;11.10;99.90;;;;;;4881153;29;20100;-72
2021/09/24 05:59:32;;;;;;;4.80;4.28;;;11.10;99.90;;;;;;4881425;29;20089;-72
2021/09/24 06:01:58;;;;;;;4.65;4.25;;;11.10;99.90;;;;;;4881131;29;20041;-72
2021/09/24 06:04:24;;;;;;;5.90;4.18;;;11.10;99.90;;;;;;4880603;29;20181;-72
2021/09/24 06:06:50;;;;;;;5.43;3.88;;;11.10;99.60;;;;;;4880597;29;20072;-72
2021/09/24 06:09:16;;;;;;;4.10;3.70;;;11.20;99.90;;;;;;4880778;29;20053;-72
2021/09/24 06:11:42;;;;;;;8.52;4.07;;;11.20;96.80;;;;;;4880718;29;20132;-72
2021/09/24 06:14:09;;;;;;;5.32;4.18;;;11.20;99.90;;;;;;4880821;29;20092;-72
2021/09/24 06:16:34;;;;;;;5.90;4.22;;;11.30;99.90;;;;;;4880208;29;20524;-72
2021/09/24 06:19:00;;;;;;;5.97;4.18;;;11.40;99.90;;;;;;4880638;29;20052;-72
2021/09/24 06:21:26;;;;;;;3.80;3.50;;;11.40;98.50;;;;;;4880709;29;20044;-72
2021/09/24 06:23:53;;;;;;;6.78;4.25;;;11.40;95.20;;;;;;4880671;29;20056;-72
2021/09/24 06:26:19;;;;;;;7.53;4.00;;;11.40;94.60;;;;;;4880643;29;20049;-72
2021/09/24 06:28:45;;;;;;;6.20;4.05;;;11.40;95.80;;;;;;4881248;29;20045;-72
2021/09/24 06:31:11;;;;;;;6.88;4.18;;;11.50;93.20;;;;;;4880411;29;20135;-72
2021/09/24 06:33:37;;;;;;;5.18;3.53;;;11.50;89.40;;;;;;4880623;29;20434;-72
2021/09/24 06:36:03;;;;;;;8.38;3.72;;;11.60;90.00;;;;;;4881046;29;20501;-72
2021/09/24 06:38:29;;;;;;;4.75;3.90;;;11.60;97.30;;;;;;4880079;29;20451;-72
2021/09/24 06:40:55;;;;;;;8.10;4.25;;;11.70;94.60;;;;;;4879082;29;20045;-72
2021/09/24 06:43:21;;;;;;;7.07;4.10;;;11.70;95.20;;;;;;4878746;29;20049;-72
2021/09/24 06:45:47;;;;;;;6.40;3.95;;;11.80;94.00;;;;;;4878569;29;20049;-72
2021/09/24 06:48:13;;;;;;;6.82;3.85;;;11.80;93.90;;;;;;4878867;29;20100;-72
2021/09/24 06:50:40;;;;;;;7.20;4.28;;;11.90;95.40;;;;;;4880199;29;20040;-72
2021/09/24 06:53:06;;;;;;;10.07;3.78;;;11.80;97.50;;;;;;4880491;29;20045;-72
2021/09/24 06:55:32;;;;;;;7.05;4.20;;;11.90;95.60;;;;;;4880099;29;20109;-72
2021/09/24 06:57:58;;;;;;;7.70;4.00;;;11.90;96.30;;;;;;4879026;29;20041;-72
2021/09/24 07:00:25;;;;;;;5.85;4.18;;;12.00;92.20;;;;;;4878053;29;20068;-72
2021/09/24 07:02:52;;;;;;;5.93;3.92;;;12.00;91.50;;;;;;4878748;29;20132;-72
2021/09/24 07:05:18;;;;;;;9.30;4.60;;;12.10;88.70;;;;;;4880977;29;20051;-72
2021/09/24 07:07:44;;;;;;;7.72;4.18;;;12.20;86.50;;;;;;4882406;29;20072;-73
2021/09/24 07:10:11;;;;;;;6.00;4.18;;;12.30;80.70;;;;;;4883099;29;20044;-72
2021/09/24 07:12:37;;;;;;;5.20;4.07;;;12.40;75.70;;;;;;4883435;29;20509;-72
2021/09/24 07:15:04;;;;;;;6.47;4.30;;;12.50;79.00;;;;;;4883409;29;20045;-72
2021/09/24 07:17:30;;;;;;;6.43;4.25;;;12.50;78.20;;;;;;4883639;29;20053;-72
2021/09/24 07:19:56;;;;;;;6.20;4.47;;;12.60;71.20;;;;;;4884531;29;20057;-72
2021/09/24 07:22:23;;;;;;;6.95;4.30;;;12.70;66.70;;;;;;4883578;29;20045;-72
2021/09/24 07:24:50;;;;;;;4.30;3.78;;;12.80;68.20;;;;;;4884087;29;20489;-72
2021/09/24 07:27:17;;;;;;;5.10;4.20;;;12.80;70.60;;;;;;4883287;29;20048;-72
2021/09/24 07:29:42;;;;;;;6.60;4.28;;;12.90;76.60;;;;;;4884313;29;20583;-72
2021/09/24 07:32:08;;;;;;;6.53;4.53;;;13.00;77.20;;;;;;4883620;29;20200;-72
2021/09/24 07:34:34;;;;;;;5.07;4.18;;;13.10;77.20;;;;;;4883723;29;20044;-70
2021/09/24 07:37:01;;;;;;;8.52;4.28;;;13.20;71.80;;;;;;4883440;29;20441;-70
2021/09/24 07:39:26;;;;;;;8.55;4.03;;;13.20;77.70;;;;;;4881836;29;20045;-70
2021/09/24 07:41:52;;;;;;;9.40;4.43;;;13.30;81.00;;;;;;4881643;29;20067;-70
2021/09/24 07:44:18;;;;;;;9.10;4.70;;;13.40;77.80;;;;;;4881528;29;20045;-70
2021/09/24 07:46:46;;;;;;;6.25;4.20;;;13.50;68.00;;;;;;4881588;29;20048;-70
2021/09/24 07:49:13;;;;;;;5.88;4.07;;;13.70;68.10;;;;;;4882315;29;20530;-70
2021/09/24 07:51:38;;;;;;;9.40;3.90;;;13.80;67.10;;;;;;4883374;29;20053;-70
2021/09/24 07:54:04;;;;;;;5.80;3.55;;;13.80;64.80;;;;;;4881753;29;20040;-70
2021/09/24 07:56:30;;;;;;;5.13;3.80;;;13.90;63.50;;;;;;4881607;29;20053;-70
2021/09/24 07:58:56;;;;;;;6.03;3.58;;;13.90;63.20;;;;;;4882765;29;20041;-70
2021/09/24 08:01:24;;;;;;;5.97;3.35;;;14.00;63.00;;;;;;4882869;29;20037;-70
2021/09/24 08:03:51;;;;;;;4.85;3.78;;;14.00;69.40;;;;;;4882452;29;20489;-70
2021/09/24 08:06:19;;;;;;;7.07;3.95;;;14.10;65.50;;;;;;4882424;29;20076;-70
2021/09/24 08:08:45;;;;;;;3.65;3.35;;;14.30;65.30;;;;;;4881961;29;20048;-70
2021/09/24 08:11:12;;;;;;;6.22;3.78;;;14.30;61.70;;;;;;4881838;29;20075;-70
2021/09/24 08:13:38;;;;;;;5.78;3.90;;;14.30;61.00;;;;;;4883031;29;20156;-70
2021/09/24 08:16:04;;;;;;;6.65;4.13;;;14.40;58.50;;;;;;4881788;29;20548;-70
2021/09/24 08:18:30;;;;;;;5.18;3.20;;;14.50;47.80;;;;;;4888928;29;20508;-70
2021/09/24 08:20:59;;;;;;;5.97;3.60;;;14.50;47.80;;;;;;4893497;29;20033;-70
2021/09/24 08:23:26;;;;;;;8.95;4.00;;;14.60;43.50;;;;;;4882234;29;20045;-70
2021/09/24 08:25:51;;;;;;;8.10;5.18;;;14.70;39.50;;;;;;4899871;29;20045;-70
2021/09/24 08:28:18;;;;;;;6.68;3.38;;;14.70;39.00;;;;;;4901009;29;20101;-70
2021/09/24 08:30:44;;;;;;;3.90;3.60;;;14.80;33.10;;;;;;4901065;29;20138;-68
2021/09/24 08:33:10;;;;;;;3.95;3.28;;;14.80;30.80;;;;;;4901329;29;20048;-69
2021/09/24 08:35:36;;;;;;;4.82;3.78;;;14.90;34.80;;;;;;4898801;29;20041;-69
2021/09/24 08:38:03;;;;;;;5.50;3.65;;;15.00;45.00;;;;;;4899439;29;20041;-70
2021/09/24 08:40:30;;;;;;;5.60;3.80;;;15.10;39.60;;;;;;4900330;29;20442;-72
2021/09/24 08:42:57;;;;;;;4.53;2.85;;;15.20;15.60;;;;;;4900943;29;20048;-72
2021/09/24 08:45:26;;;;;;;5.03;3.28;;;15.40;18.70;;;;;;4900736;29;20051;-72
2021/09/24 08:48:01;;;;;;;4.10;3.42;;;15.40;20.40;;;;;;4900763;29;20037;-72
2021/09/24 08:50:28;;;;;;;5.85;3.35;;;15.50;25.40;;;;;;4901151;29;20500;-72
2021/09/24 08:52:54;;;;;;;6.03;3.65;;;15.60;27.30;;;;;;4900818;29;20527;-72
2021/09/24 08:55:20;;;;;;;6.18;3.53;;;15.50;40.10;;;;;;4900840;29;20044;-72
2021/09/24 08:57:46;;;;;;;6.93;3.17;;;15.70;57.40;;;;;;4900799;29;20522;-72
2021/09/24 09:00:14;;;;;;;3.92;3.15;;;15.90;39.40;;;;;;4899430;29;20040;-72
2021/09/24 09:03:05;;;;;;;3.78;3.33;;;16.00;40.50;;;;;;4900956;29;20049;-72
2021/09/24 09:05:36;;;;;;;6.00;3.10;;;16.30;40.50;;;;;;4900079;29;20036;-72
2021/09/24 09:08:09;;;;;;;6.55;3.55;;;16.40;31.30;;;;;;4901015;29;20059;-72
2021/09/24 09:10:56;;;;;;;6.00;3.63;;;16.50;17.80;;;;;;4901096;29;20040;-72
2021/09/24 09:13:23;;;;;;;7.57;3.47;;;16.40;29.20;;;;;;4900453;29;20045;-72
2021/09/24 09:15:57;;;;;;;10.55;3.38;;;16.50;38.50;;;;;;4900628;29;20136;-72
2021/09/24 09:18:23;;;;;;;9.02;3.15;;;16.50;29.80;;;;;;4900317;29;20052;-72
2021/09/24 09:20:51;;;;;;;8.15;3.20;;;16.70;27.60;;;;;;4900825;29;20036;-72
2021/09/24 09:23:18;;;;;;;3.05;2.70;;;17.00;1.00;;;;;;4900489;29;20036;-72
2021/09/24 09:25:47;;;;;;;6.53;3.03;;;17.10;1.00;;;;;;4900434;29;20028;-72
2021/09/24 09:28:30;;;;;;;5.07;2.85;;;17.30;1.00;;;;;;4899811;29;20480;-72
2021/09/24 09:30:56;;;;;;;3.75;2.70;;;17.40;1.00;;;;;;4900596;29;20033;-72
2021/09/24 09:33:24;;;;;;;3.42;2.70;;;17.50;1.00;;;;;;4900066;29;20041;-72
2021/09/24 09:35:53;;;;;;;6.18;3.15;;;17.40;1.00;;;;;;4900228;29;20484;-72
2021/09/24 09:38:23;;;;;;;5.55;2.90;;;17.30;1.00;;;;;;4899668;29;20064;-72
2021/09/24 09:40:57;;;;;;;3.78;3.20;;;17.30;1.00;;;;;;4899955;29;20047;-72
2021/09/24 09:43:27;;;;;;;3.10;2.80;;;17.30;1.00;;;;;;4899926;29;20040;-72
2021/09/24 09:45:54;;;;;;;4.40;2.85;;;17.50;1.00;;;;;;4883520;29;20476;-72
2021/09/24 09:48:20;;;;;;;3.63;2.67;;;18.10;1.00;;;;;;4899887;29;20048;-72
2021/09/24 09:50:46;;;;;;;3.95;2.80;;;18.30;1.00;;;;;;4900060;29;20040;-72
2021/09/24 09:53:16;;;;;;;2.75;2.53;;;18.00;1.00;;;;;;4899789;29;20132;-72
2021/09/24 09:55:58;;;;;;;3.72;2.58;;;18.10;1.00;;;;;;4900266;29;20037;-72
2021/09/24 09:58:31;;;;;;;2.60;2.17;;;18.50;1.00;;;;;;4899648;29;20044;-72
2021/09/24 10:01:16;;;;;;;3.45;2.50;;;18.80;1.00;;;;;;4899525;29;20061;-72
2021/09/24 10:03:53;;;;;;;2.65;2.42;;;18.70;1.00;;;;;;4899939;29;20119;-72
2021/09/24 10:06:25;;;;;;;2.33;2.13;;;18.80;1.00;;;;;;4899801;29;20135;-72
2021/09/24 10:09:01;;;;;;;3.70;2.30;;;18.60;1.00;;;;;;4899406;29;20496;-72
2021/09/24 10:11:35;;;;;;;5.60;2.20;;;18.80;1.00;;;;;;4899764;29;20033;-72
2021/09/24 10:14:09;;;;;;;9.00;2.35;;;18.90;1.00;;;;;;4899770;29;20044;-72
2021/09/24 10:16:38;;;;;;;2.70;2.30;;;18.60;1.00;;;;;;4898882;29;20108;-72
2021/09/24 10:19:05;;;;;;;5.20;2.83;;;18.50;1.00;;;;;;4899719;29;20036;-72
2021/09/24 10:21:31;;;;;;;5.45;2.83;;;19.00;1.00;;;;;;4899565;29;20044;-72
2021/09/24 10:23:57;;;;;;;3.33;2.35;;;19.30;1.00;;;;;;4899375;29;20496;-72
2021/09/24 10:26:36;;;;;;;3.95;2.75;;;19.40;1.00;;;;;;4899357;29;20087;-72
2021/09/24 10:29:20;;;;;;;3.45;2.60;;;19.60;1.00;;;;;;4899446;29;20077;-72
2021/09/24 10:31:50;;;;;;;4.82;2.70;;;19.80;1.00;;;;;;4899364;29;20045;-72
2021/09/24 10:34:22;;;;;;;5.72;2.60;;;19.90;1.00;;;;;;4899337;29;20036;-72
2021/09/24 10:36:56;;;;;;;5.40;2.88;;;19.60;1.00;;;;;;4898785;29;20084;-72
2021/09/24 10:39:31;;;;;;;4.95;2.80;;;19.70;1.00;;;;;;4898712;29;20047;-72
2021/09/24 10:42:16;;;;;;;3.38;2.90;;;19.80;1.00;;;;;;4903103;29;20037;-72
2021/09/24 10:45:01;;;;;;;5.15;2.90;;;19.90;1.00;;;;;;4903599;29;20040;-72
2021/09/24 10:48:00;;;;;;;6.60;2.85;;;19.90;1.00;;;;;;4903290;29;20037;-72
2021/09/24 10:50:38;;;;;;;4.85;2.97;;;19.80;1.00;;;;;;4902580;29;20043;-72
2021/09/24 10:53:19;;;;;;;5.85;2.45;;;19.80;1.00;;;;;;4902729;29;20045;-72
2021/09/24 10:55:53;;;;;;;2.97;2.60;;;19.80;1.00;;;;;;4902487;29;20583;-72
2021/09/24 10:58:28;;;;;;;3.83;2.72;;;19.90;1.00;;;;;;4902594;29;20075;-72
2021/09/24 11:01:11;;;;;;;4.18;2.70;;;20.00;1.00;;;;;;4902536;29;20119;-72
2021/09/24 11:04:02;;;;;;;4.65;2.92;;;20.30;1.00;;;;;;4902408;29;20040;-72
2021/09/24 11:06:49;;;;;;;7.00;2.92;;;20.40;1.00;;;;;;4902677;29;20044;-72
2021/09/24 11:09:21;;;;;;;5.28;3.03;;;20.40;1.00;;;;;;4902467;29;20155;-72
2021/09/24 11:11:51;;;;;;;5.68;2.88;;;20.30;1.00;;;;;;4902888;29;20040;-72
2021/09/24 11:14:29;;;;;;;5.57;2.95;;;20.40;1.00;;;;;;4902524;29;20044;-72
2021/09/24 11:16:56;;;;;;;3.25;2.63;;;20.30;1.00;;;;;;4902306;29;20048;-72
2021/09/24 11:19:33;;;;;;;4.07;2.95;;;20.40;1.00;;;;;;4885578;29;20047;-72
2021/09/24 11:21:58;;;;;;;5.00;2.95;;;20.60;1.00;;;;;;4902405;29;20138;-72
2021/09/24 11:24:42;;;;;;;5.43;3.20;;;20.50;1.00;;;;;;4902654;29;20054;-72
2021/09/24 11:27:14;;;;;;;5.40;2.58;;;20.50;1.00;;;;;;4902720;29;20045;-72
2021/09/24 11:30:00;;;;;;;6.57;3.03;;;20.50;1.00;;;;;;4902170;29;20087;-72
2021/09/24 11:32:36;;;;;;;10.07;2.60;;;20.50;1.00;;;;;;4902107;29;20044;-72
2021/09/24 11:35:05;;;;;;;7.28;2.97;;;20.60;1.00;;;;;;4902335;29;20496;-72
2021/09/24 11:37:33;;;;;;;4.60;2.55;;;20.80;1.00;;;;;;4902225;29;20127;-72
2021/09/24 11:40:05;;;;;;;2.75;2.47;;;20.90;1.00;;;;;;4902083;29;20515;-72
2021/09/24 11:42:37;;;;;;;4.50;2.60;;;21.10;1.00;;;;;;4902091;29;20052;-72
2021/09/24 11:45:08;;;;;;;4.50;2.50;;;21.20;1.00;;;;;;4901899;29;20052;-72
2021/09/24 11:47:39;;;;;;;7.78;2.83;;;21.20;1.00;;;;;;4902091;29;20048;-72
2021/09/24 11:50:16;;;;;;;8.50;3.67;;;21.20;1.00;;;;;;4901603;29;20480;-72
2021/09/24 11:52:54;;;;;;;8.50;2.85;;;21.30;1.00;;;;;;4900852;29;20507;-72
2021/09/24 11:55:26;;;;;;;3.70;2.33;;;21.50;1.00;;;;;;4901822;29;20052;-72
2021/09/24 11:57:59;;;;;;;6.22;2.22;;;21.60;1.00;;;;;;4901345;29;20370;-72
2021/09/24 12:00:33;;;;;;;5.38;2.67;;;21.70;1.00;;;;;;4901836;29;20041;-72
2021/09/24 12:03:29;;;;;;;4.28;2.40;;;21.80;1.00;;;;;;4901709;29;20044;-72
2021/09/24 12:05:58;;;;;;;5.38;2.47;;;21.70;1.00;;;;;;4885895;29;20041;-72
2021/09/24 12:08:28;;;;;;;7.65;2.80;;;22.00;1.00;;;;;;4901133;29;20517;-72
2021/09/24 12:11:07;;;;;;;5.88;3.03;;;22.10;1.00;;;;;;4901536;29;20035;-72
2021/09/24 12:13:41;;;;;;;11.60;3.00;;;22.20;1.00;;;;;;4901429;29;20047;-72
2021/09/24 12:16:08;;;;;;;7.63;2.60;;;22.20;1.00;;;;;;4900638;29;20045;-72
2021/09/24 12:18:45;;;;;;;5.35;2.50;;;22.20;1.00;;;;;;4901451;29;20401;-72
2021/09/24 12:21:13;;;;;;;6.35;2.50;;;22.20;1.00;;;;;;4901645;29;20037;-72
2021/09/24 12:23:39;;;;;;;4.03;2.70;;;22.20;1.00;;;;;;4901329;29;20047;-72
2021/09/24 12:26:08;;;;;;;7.43;2.60;;;22.10;1.00;;;;;;4901004;29;20534;-72
2021/09/24 12:28:35;;;;;;;7.97;2.58;;;22.10;1.00;;;;;;4901531;29;20041;-72
2021/09/24 12:31:03;;;;;;;6.95;2.63;;;22.00;1.00;;;;;;4901205;29;20040;-72
2021/09/24 12:33:29;;;;;;;6.72;2.92;;;22.10;1.00;;;;;;4901153;29;20124;-72
2021/09/24 12:35:58;;;;;;;6.18;2.85;;;22.20;1.00;;;;;;4901035;29;20133;-72
2021/09/24 12:38:25;;;;;;;3.63;2.60;;;22.30;1.00;;;;;;4900859;29;20044;-72
2021/09/24 12:41:13;;;;;;;4.13;2.65;;;22.30;1.00;;;;;;4900726;29;20450;-72
2021/09/24 12:43:39;;;;;;;11.40;2.88;;;22.30;1.00;;;;;;4901245;29;20092;-72
2021/09/24 12:46:06;;;;;;;10.50;2.78;;;22.30;1.00;;;;;;4900479;29;20087;-72
2021/09/24 12:48:50;;;;;;;9.55;2.80;;;22.20;1.00;;;;;;4901400;29;20108;-72
2021/09/24 12:51:16;;;;;;;6.97;3.22;;;22.20;1.00;;;;;;4901108;29;20161;-72
2021/09/24 12:53:43;;;;;;;8.75;2.90;;;22.20;1.00;;;;;;4900534;29;20154;-72
2021/09/24 12:56:12;;;;;;;6.57;2.85;;;22.30;1.00;;;;;;4900335;29;20049;-72